createdAt,value
2023-09-17T00:00:30.123Z,85.03
2023-09-17T00:01:01.654Z,85.29
2023-09-17T00:01:33.371Z,85.17
2023-09-17T00:02:05.230Z,85.09
2023-09-17T00:02:37.484Z,84.69
2023-09-17T00:03:09.222Z,84.91
2023-09-17T00:03:43.566Z,84.75
2023-09-17T00:04:15.397Z,84.56
2023-09-17T00:04:47.032Z,85.15
2023-09-17T00:05:18.554Z,85.46
2023-09-17T00:05:50.229Z,86.25
2023-09-17T00:06:21.931Z,85.84
2023-09-17T00:06:53.459Z,85.34
2023-09-17T00:07:25.046Z,85.01
2023-09-17T00:07:56.610Z,84.79
2023-09-17T00:08:28.166Z,85.18
2023-09-17T00:08:59.716Z,85.22
2023-09-17T00:09:31.370Z,85.08
2023-09-17T00:10:02.980Z,85.14
2023-09-17T00:10:34.870Z,85.18
2023-09-17T00:11:07.170Z,85.74
2023-09-17T00:11:38.822Z,86.11
2023-09-17T00:12:10.410Z,86.24
2023-09-17T00:12:42.218Z,85.59
2023-09-17T00:13:14.126Z,85.74
2023-09-17T00:13:45.810Z,86.43
2023-09-17T00:14:17.531Z,85.75
2023-09-17T00:14:50.043Z,86.12
2023-09-17T00:15:28.210Z,86.36
2023-09-17T00:16:00.718Z,85.73
2023-09-17T00:16:32.788Z,86.17
2023-09-17T00:17:05.934Z,85.94
2023-09-17T00:17:38.470Z,85.52
2023-09-17T00:18:10.405Z,85.51
2023-09-17T00:18:42.033Z,85.70
2023-09-17T00:19:14.261Z,86.37
2023-09-17T00:19:46.060Z,86.31
2023-09-17T00:20:17.638Z,85.96
2023-09-17T00:20:49.148Z,85.11
2023-09-17T00:21:21.038Z,85.95
2023-09-17T00:21:52.880Z,85.80
2023-09-17T00:22:25.526Z,86.70
2023-09-17T00:22:57.106Z,86.53
2023-09-17T00:23:28.658Z,85.99
2023-09-17T00:24:00.233Z,86.95
2023-09-17T00:24:31.730Z,86.38
2023-09-17T00:25:03.244Z,86.77
2023-09-17T00:25:34.871Z,85.86
2023-09-17T00:26:06.368Z,86.09
2023-09-17T00:26:37.883Z,86.71
2023-09-17T00:27:09.473Z,86.46
2023-09-17T00:27:41.049Z,86.79
2023-09-17T00:28:12.656Z,86.03
2023-09-17T00:28:44.365Z,86.20
2023-09-17T00:29:15.901Z,86.46
2023-09-17T00:29:47.422Z,86.43
2023-09-17T00:30:18.904Z,86.11
2023-09-17T00:30:50.453Z,86.55
2023-09-17T00:31:22.063Z,86.20
2023-09-17T00:31:53.636Z,87.00
2023-09-17T00:32:25.250Z,86.37
2023-09-17T00:32:56.821Z,86.10
2023-09-17T00:33:28.365Z,86.31
2023-09-17T00:33:59.857Z,86.50
2023-09-17T00:34:31.507Z,86.41
2023-09-17T00:35:04.459Z,86.45
2023-09-17T00:35:36.021Z,86.05
2023-09-17T00:36:07.509Z,85.82
2023-09-17T00:36:39.061Z,86.05
2023-09-17T00:37:12.688Z,85.50
2023-09-17T00:37:45.707Z,85.80
2023-09-17T00:38:17.261Z,86.25
2023-09-17T00:38:48.859Z,86.30
2023-09-17T00:39:20.363Z,86.86
2023-09-17T00:39:51.903Z,86.67
2023-09-17T00:40:28.818Z,87.17
2023-09-17T00:41:01.317Z,86.94
2023-09-17T00:41:32.857Z,85.97
2023-09-17T00:42:04.504Z,86.69
2023-09-17T00:42:36.036Z,86.95
2023-09-17T00:43:07.932Z,86.38
2023-09-17T00:43:39.582Z,86.86
2023-09-17T00:44:11.304Z,86.86
2023-09-17T00:44:43.316Z,86.79
2023-09-17T00:45:14.876Z,86.76
2023-09-17T00:45:46.760Z,87.29
2023-09-17T00:46:18.530Z,87.29
2023-09-17T00:46:51.575Z,86.58
2023-09-17T00:47:23.437Z,86.87
2023-09-17T00:47:56.367Z,86.71
2023-09-17T00:48:28.422Z,86.23
2023-09-17T00:49:01.356Z,86.79
2023-09-17T00:49:34.041Z,86.35
2023-09-17T00:50:06.369Z,87.17
2023-09-17T00:50:40.435Z,86.75
2023-09-17T00:51:12.456Z,86.62
2023-09-17T00:51:44.616Z,87.12
2023-09-17T00:52:19.540Z,87.02
2023-09-17T00:52:51.571Z,87.10
2023-09-17T00:53:23.311Z,87.09
2023-09-17T00:53:57.615Z,87.55
2023-09-17T00:54:31.036Z,87.17
2023-09-17T00:55:02.644Z,87.13
2023-09-17T00:55:34.377Z,86.33
2023-09-17T00:56:05.951Z,86.53
2023-09-17T00:56:38.506Z,86.51
2023-09-17T00:57:11.217Z,86.50
2023-09-17T00:57:46.704Z,86.61
2023-09-17T00:58:18.418Z,87.41
2023-09-17T00:58:51.769Z,86.81
2023-09-17T00:59:24.789Z,87.85
2023-09-17T00:59:56.332Z,87.19
2023-09-17T01:00:28.590Z,87.01
2023-09-17T01:01:01.063Z,87.04
2023-09-17T01:01:33.353Z,87.18
2023-09-17T01:02:06.183Z,86.79
2023-09-17T01:02:40.563Z,86.71
2023-09-17T01:03:13.872Z,87.09
2023-09-17T01:03:46.345Z,86.49
2023-09-17T01:04:19.183Z,86.41
2023-09-17T01:04:53.607Z,86.73
2023-09-17T01:05:26.901Z,86.23
2023-09-17T01:06:02.077Z,86.13
2023-09-17T01:06:33.735Z,86.55
2023-09-17T01:07:05.843Z,86.43
2023-09-17T01:07:37.489Z,86.59
2023-09-17T01:08:10.630Z,86.62
2023-09-17T01:08:42.652Z,86.57
2023-09-17T01:09:14.786Z,86.54
2023-09-17T01:09:46.652Z,86.77
2023-09-17T01:10:18.306Z,87.28
2023-09-17T01:10:50.822Z,87.67
2023-09-17T01:11:22.396Z,86.98
2023-09-17T01:11:54.002Z,87.37
2023-09-17T01:12:27.671Z,87.39
2023-09-17T01:13:00.296Z,87.11
2023-09-17T01:13:32.522Z,86.84
2023-09-17T01:14:16.503Z,86.85
2023-09-17T01:14:48.235Z,87.21
2023-09-17T01:15:20.299Z,86.80
2023-09-17T01:15:55.177Z,86.65
2023-09-17T01:16:27.831Z,86.69
2023-09-17T01:17:02.195Z,86.12
2023-09-17T01:17:35.725Z,86.05
2023-09-17T01:18:10.551Z,86.14
2023-09-17T01:18:43.645Z,85.96
2023-09-17T01:19:24.607Z,86.20
2023-09-17T01:19:57.061Z,86.33
2023-09-17T01:20:42.275Z,86.29
2023-09-17T01:21:32.848Z,86.52
2023-09-17T01:22:08.319Z,86.47
2023-09-17T01:22:48.282Z,86.59
2023-09-17T01:23:43.307Z,86.58
2023-09-17T01:24:36.780Z,86.48
2023-09-17T01:25:19.344Z,86.72
2023-09-17T01:25:58.152Z,86.17
2023-09-17T01:26:31.289Z,86.66
2023-09-17T01:27:04.869Z,86.55
2023-09-17T01:27:39.865Z,86.66
2023-09-17T01:28:13.522Z,86.69
2023-09-17T01:28:45.185Z,86.32
2023-09-17T01:29:27.946Z,86.66
2023-09-17T01:29:59.607Z,86.37
2023-09-17T01:30:31.114Z,86.49
2023-09-17T01:31:02.643Z,87.02
2023-09-17T01:31:35.547Z,86.87
2023-09-17T01:32:08.090Z,86.49
2023-09-17T01:32:40.431Z,86.32
2023-09-17T01:33:12.355Z,86.31
2023-09-17T01:33:43.935Z,86.70
2023-09-17T01:34:16.165Z,86.93
2023-09-17T01:34:53.961Z,86.38
2023-09-17T01:35:26.187Z,86.43
2023-09-17T01:36:17.319Z,86.61
2023-09-17T01:36:50.365Z,85.83
2023-09-17T01:37:28.707Z,85.87
2023-09-17T01:38:04.598Z,85.70
2023-09-17T01:38:41.533Z,86.34
2023-09-17T01:39:23.502Z,86.65
2023-09-17T01:40:04.672Z,87.18
2023-09-17T01:40:36.391Z,87.08
2023-09-17T01:41:09.325Z,86.76
2023-09-17T01:41:42.374Z,87.27
2023-09-17T01:42:16.630Z,86.96
2023-09-17T01:42:49.841Z,86.51
2023-09-17T01:43:22.224Z,86.96
2023-09-17T01:43:54.566Z,86.69
2023-09-17T01:44:30.250Z,86.37
2023-09-17T01:45:04.115Z,85.91
2023-09-17T01:45:36.285Z,85.66
2023-09-17T01:46:09.776Z,85.86
2023-09-17T01:46:43.176Z,85.78
2023-09-17T01:47:16.531Z,85.58
2023-09-17T01:47:50.092Z,86.15
2023-09-17T01:48:23.289Z,86.17
2023-09-17T01:48:56.319Z,86.63
2023-09-17T01:49:29.681Z,86.42
2023-09-17T01:50:03.078Z,86.21
2023-09-17T01:50:35.828Z,86.20
2023-09-17T01:51:08.837Z,86.63
2023-09-17T01:51:41.243Z,86.62
2023-09-17T01:52:13.716Z,86.12
2023-09-17T01:52:45.757Z,86.48
2023-09-17T01:53:17.741Z,86.53
2023-09-17T01:53:49.557Z,85.87
2023-09-17T01:54:21.538Z,85.87
2023-09-17T01:54:54.030Z,86.47
2023-09-17T01:55:25.617Z,86.18
2023-09-17T01:55:57.829Z,85.70
2023-09-17T01:56:29.397Z,86.34
2023-09-17T01:57:00.916Z,86.26
2023-09-17T01:57:35.010Z,86.42
2023-09-17T01:58:06.508Z,85.76
2023-09-17T01:58:38.035Z,86.38
2023-09-17T01:59:09.585Z,86.06
2023-09-17T01:59:41.093Z,86.04
2023-09-17T02:00:17.988Z,86.55
2023-09-17T02:00:50.516Z,86.39
2023-09-17T02:01:23.008Z,86.52
2023-09-17T02:01:54.791Z,86.41
2023-09-17T02:02:28.220Z,86.28
2023-09-17T02:03:03.720Z,85.81
2023-09-17T02:03:35.432Z,86.02
2023-09-17T02:04:07.108Z,86.31
2023-09-17T02:04:38.694Z,86.66
2023-09-17T02:05:10.362Z,86.87
2023-09-17T02:05:41.809Z,86.13
2023-09-17T02:06:13.289Z,86.44
2023-09-17T02:06:46.726Z,86.52
2023-09-17T02:07:18.312Z,86.55
2023-09-17T02:07:49.843Z,86.36
2023-09-17T02:08:21.361Z,85.88
2023-09-17T02:08:52.850Z,85.89
2023-09-17T02:09:24.365Z,85.93
2023-09-17T02:09:56.122Z,86.15
2023-09-17T02:10:27.738Z,85.80
2023-09-17T02:10:59.348Z,86.15
2023-09-17T02:11:30.854Z,86.14
2023-09-17T02:12:02.378Z,86.07
2023-09-17T02:12:33.939Z,85.96
2023-09-17T02:13:05.393Z,85.91
2023-09-17T02:13:36.926Z,86.40
2023-09-17T02:14:08.454Z,86.63
2023-09-17T02:14:40.224Z,86.49
2023-09-17T02:15:11.794Z,86.83
2023-09-17T02:15:43.452Z,86.58
2023-09-17T02:16:15.226Z,86.08
2023-09-17T02:16:46.910Z,85.07
2023-09-17T02:17:19.705Z,85.39
2023-09-17T02:17:52.246Z,85.70
2023-09-17T02:18:23.740Z,85.43
2023-09-17T02:18:58.100Z,85.95
2023-09-17T02:19:29.865Z,85.96
2023-09-17T02:20:01.348Z,86.13
2023-09-17T02:20:38.180Z,85.40
2023-09-17T02:21:09.730Z,85.14
2023-09-17T02:21:41.605Z,84.78
2023-09-17T02:22:13.142Z,85.37
2023-09-17T02:22:44.673Z,85.37
2023-09-17T02:23:16.137Z,85.41
2023-09-17T02:23:49.062Z,85.08
2023-09-17T02:24:21.174Z,85.47
2023-09-17T02:24:52.656Z,85.42
2023-09-17T02:25:24.161Z,85.67
2023-09-17T02:25:55.736Z,85.57
2023-09-17T02:26:27.644Z,85.54
2023-09-17T02:26:59.112Z,85.62
2023-09-17T02:27:30.572Z,85.48
2023-09-17T02:28:03.181Z,85.46
2023-09-17T02:28:34.674Z,85.42
2023-09-17T02:29:07.472Z,85.33
2023-09-17T02:29:38.970Z,85.57
2023-09-17T02:30:10.662Z,85.63
2023-09-17T02:30:42.209Z,86.02
2023-09-17T02:31:14.777Z,85.88
2023-09-17T02:31:46.444Z,85.29
2023-09-17T02:32:18.129Z,85.36
2023-09-17T02:32:49.706Z,85.29
2023-09-17T02:33:21.212Z,85.73
2023-09-17T02:33:52.877Z,85.98
2023-09-17T02:34:24.496Z,85.69
2023-09-17T02:34:55.971Z,85.96
2023-09-17T02:35:27.495Z,85.98
2023-09-17T02:35:59.120Z,85.81
2023-09-17T02:36:30.713Z,86.27
2023-09-17T02:37:02.247Z,85.43
2023-09-17T02:37:33.980Z,85.78
2023-09-17T02:38:05.864Z,85.57
2023-09-17T02:38:37.424Z,85.53
2023-09-17T02:39:09.703Z,85.72
2023-09-17T02:39:41.287Z,86.13
2023-09-17T02:40:12.797Z,85.95
2023-09-17T02:40:44.675Z,85.93
2023-09-17T02:41:16.248Z,85.48
2023-09-17T02:41:47.805Z,86.05
2023-09-17T02:42:19.314Z,85.26
2023-09-17T02:42:50.855Z,85.38
2023-09-17T02:43:22.345Z,85.45
2023-09-17T02:43:54.128Z,85.68
2023-09-17T02:44:26.719Z,85.64
2023-09-17T02:44:58.198Z,85.81
2023-09-17T02:45:29.777Z,85.97
2023-09-17T02:46:01.357Z,85.88
2023-09-17T02:46:33.717Z,85.88
2023-09-17T02:47:05.404Z,86.74
2023-09-17T02:47:37.164Z,87.09
2023-09-17T02:48:08.758Z,86.52
2023-09-17T02:48:40.255Z,85.54
2023-09-17T02:49:11.709Z,85.10
2023-09-17T02:49:43.315Z,85.10
2023-09-17T02:50:14.896Z,85.50
2023-09-17T02:50:46.697Z,86.02
2023-09-17T02:51:18.188Z,85.21
2023-09-17T02:51:52.811Z,85.25
2023-09-17T02:52:24.313Z,85.01
2023-09-17T02:52:55.778Z,85.23
2023-09-17T02:53:27.261Z,85.39
2023-09-17T02:53:58.783Z,85.63
2023-09-17T02:54:30.365Z,85.80
2023-09-17T02:55:01.924Z,86.47
2023-09-17T02:55:33.456Z,86.61
2023-09-17T02:56:05.617Z,86.62
2023-09-17T02:56:37.265Z,86.58
2023-09-17T02:57:08.730Z,86.47
2023-09-17T02:57:40.282Z,86.80
2023-09-17T02:58:11.784Z,86.94
2023-09-17T02:58:43.445Z,87.18
2023-09-17T02:59:15.036Z,86.74
2023-09-17T02:59:47.295Z,86.75
2023-09-17T03:00:18.818Z,86.23
2023-09-17T03:00:50.789Z,86.22
2023-09-17T03:01:24.479Z,86.14
2023-09-17T03:01:56.379Z,86.76
2023-09-17T03:02:28.053Z,86.13
2023-09-17T03:02:59.795Z,86.76
2023-09-17T03:03:31.417Z,86.42
2023-09-17T03:04:03.906Z,86.30
2023-09-17T03:04:37.468Z,86.46
2023-09-17T03:05:12.028Z,86.59
2023-09-17T03:05:48.208Z,86.35
2023-09-17T03:06:19.838Z,86.15
2023-09-17T03:06:51.317Z,86.63
2023-09-17T03:07:22.894Z,86.70
2023-09-17T03:07:54.859Z,86.52
2023-09-17T03:08:27.482Z,86.29
2023-09-17T03:08:58.949Z,85.91
2023-09-17T03:09:30.607Z,86.09
2023-09-17T03:10:08.446Z,85.67
2023-09-17T03:10:43.804Z,85.81
2023-09-17T03:11:16.783Z,86.16
2023-09-17T03:11:48.246Z,86.88
2023-09-17T03:12:19.732Z,86.48
2023-09-17T03:12:51.227Z,86.03
2023-09-17T03:13:23.403Z,86.53
2023-09-17T03:13:56.914Z,86.46
2023-09-17T03:14:28.434Z,86.65
2023-09-17T03:15:00.253Z,86.36
2023-09-17T03:15:31.808Z,86.24
2023-09-17T03:16:03.285Z,85.39
2023-09-17T03:16:35.371Z,85.62
2023-09-17T03:17:07.117Z,85.95
2023-09-17T03:17:39.486Z,86.35
2023-09-17T03:18:11.722Z,85.94
2023-09-17T03:18:44.492Z,86.03
2023-09-17T03:19:16.053Z,86.16
2023-09-17T03:19:47.611Z,86.24
2023-09-17T03:20:19.544Z,85.81
2023-09-17T03:20:51.101Z,85.83
2023-09-17T03:21:22.779Z,85.75
2023-09-17T03:21:54.344Z,85.43
2023-09-17T03:22:25.865Z,86.31
2023-09-17T03:22:58.529Z,86.13
2023-09-17T03:23:29.978Z,86.28
2023-09-17T03:24:01.439Z,86.57
2023-09-17T03:24:32.891Z,85.73
2023-09-17T03:25:07.041Z,86.24
2023-09-17T03:25:38.656Z,86.42
2023-09-17T03:26:10.566Z,86.90
2023-09-17T03:26:42.520Z,86.00
2023-09-17T03:27:14.102Z,86.14
2023-09-17T03:27:46.586Z,86.83
2023-09-17T03:28:18.084Z,87.45
2023-09-17T03:28:49.758Z,87.30
2023-09-17T03:29:21.402Z,88.09
2023-09-17T03:29:52.934Z,88.31
2023-09-17T03:30:25.930Z,88.98
2023-09-17T03:30:57.637Z,88.13
2023-09-17T03:31:29.288Z,88.37
2023-09-17T03:32:00.971Z,88.63
2023-09-17T03:32:32.903Z,89.74
2023-09-17T03:33:06.988Z,89.98
2023-09-17T03:33:38.664Z,90.02
2023-09-17T03:34:10.188Z,90.77
2023-09-17T03:34:41.770Z,91.95
2023-09-17T03:35:13.587Z,92.24
2023-09-17T03:35:45.170Z,92.05
2023-09-17T03:36:16.756Z,92.57
2023-09-17T03:36:48.277Z,92.95
2023-09-17T03:37:19.775Z,92.64
2023-09-17T03:37:51.785Z,92.90
2023-09-17T03:38:23.274Z,93.35
2023-09-17T03:38:54.863Z,94.08
2023-09-17T03:39:26.286Z,93.85
2023-09-17T03:40:09.200Z,94.07
2023-09-17T03:40:41.135Z,93.96
2023-09-17T03:41:13.192Z,93.40
2023-09-17T03:41:44.723Z,93.76
2023-09-17T03:42:16.198Z,94.31
2023-09-17T03:42:48.303Z,94.64
2023-09-17T03:43:20.192Z,94.97
2023-09-17T03:43:51.948Z,94.93
2023-09-17T03:44:23.555Z,95.11
2023-09-17T03:44:55.008Z,95.63
2023-09-17T03:45:26.942Z,95.37
2023-09-17T03:45:58.542Z,96.15
2023-09-17T03:46:34.021Z,95.48
2023-09-17T03:47:06.837Z,94.43
2023-09-17T03:47:39.480Z,94.35
2023-09-17T03:48:11.042Z,94.54
2023-09-17T03:48:42.733Z,95.37
2023-09-17T03:49:14.297Z,95.84
2023-09-17T03:49:46.141Z,96.00
2023-09-17T03:50:20.002Z,95.85
2023-09-17T03:50:52.508Z,95.95
2023-09-17T03:51:24.011Z,96.52
2023-09-17T03:51:55.690Z,96.46
2023-09-17T03:52:28.803Z,96.52
2023-09-17T03:53:03.415Z,96.95
2023-09-17T03:53:35.541Z,96.95
2023-09-17T03:54:07.190Z,96.80
2023-09-17T03:54:38.774Z,94.40
2023-09-17T03:55:10.575Z,94.25
2023-09-17T03:55:42.479Z,94.43
2023-09-17T03:56:14.133Z,94.75
2023-09-17T03:56:45.655Z,94.57
2023-09-17T03:57:17.581Z,94.81
2023-09-17T03:57:49.293Z,95.10
2023-09-17T03:58:22.897Z,95.32
2023-09-17T03:58:54.782Z,95.61
2023-09-17T03:59:26.320Z,95.57
2023-09-17T03:59:57.864Z,93.92
2023-09-17T04:00:29.397Z,93.46
2023-09-17T04:01:00.906Z,93.04
2023-09-17T04:01:33.566Z,94.27
2023-09-17T04:02:05.993Z,94.82
2023-09-17T04:02:38.576Z,95.19
2023-09-17T04:03:10.366Z,95.31
2023-09-17T04:03:42.154Z,96.79
2023-09-17T04:04:13.661Z,96.94
2023-09-17T04:04:45.249Z,96.00
2023-09-17T04:05:17.890Z,95.90
2023-09-17T04:05:50.869Z,95.91
2023-09-17T04:06:22.324Z,96.61
2023-09-17T04:06:53.835Z,96.45
2023-09-17T04:07:25.342Z,96.72
2023-09-17T04:07:56.955Z,96.92
2023-09-17T04:08:28.420Z,97.61
2023-09-17T04:09:00.370Z,97.34
2023-09-17T04:09:31.905Z,96.75
2023-09-17T04:10:07.129Z,95.50
2023-09-17T04:10:39.709Z,95.73
2023-09-17T04:11:16.764Z,96.89
2023-09-17T04:11:48.413Z,97.26
2023-09-17T04:12:19.927Z,97.30
2023-09-17T04:12:51.457Z,97.22
2023-09-17T04:13:23.145Z,97.71
2023-09-17T04:13:55.792Z,97.34
2023-09-17T04:14:30.028Z,98.07
2023-09-17T04:15:02.079Z,97.83
2023-09-17T04:15:33.663Z,98.01
2023-09-17T04:16:05.225Z,97.74
2023-09-17T04:16:36.799Z,97.69
2023-09-17T04:17:08.457Z,97.99
2023-09-17T04:17:40.626Z,98.78
2023-09-17T04:18:12.223Z,98.43
2023-09-17T04:18:43.694Z,97.54
2023-09-17T04:19:16.730Z,97.64
2023-09-17T04:19:48.278Z,96.94
2023-09-17T04:20:20.870Z,97.73
2023-09-17T04:20:52.678Z,97.87
2023-09-17T04:21:24.172Z,98.40
2023-09-17T04:21:55.727Z,98.62
2023-09-17T04:22:27.255Z,99.85
2023-09-17T04:22:58.838Z,100.00
2023-09-17T04:23:30.843Z,99.71
2023-09-17T04:24:04.450Z,100.00
2023-09-17T04:24:35.923Z,100.00
2023-09-17T04:25:07.756Z,100.00
2023-09-17T04:25:39.389Z,100.00
2023-09-17T04:26:13.419Z,100.00
2023-09-17T04:26:46.253Z,100.00
2023-09-17T04:27:17.752Z,100.00
2023-09-17T04:27:49.913Z,100.00
2023-09-17T04:28:21.458Z,100.00
2023-09-17T04:28:53.779Z,100.00
2023-09-17T04:29:25.356Z,100.00
2023-09-17T04:29:56.887Z,100.00
2023-09-17T04:30:28.538Z,100.00
2023-09-17T04:31:00.118Z,100.00
2023-09-17T04:31:31.711Z,100.00
2023-09-17T04:32:03.796Z,100.00
2023-09-17T04:32:39.626Z,100.00
2023-09-17T04:33:11.336Z,100.00
2023-09-17T04:33:42.976Z,100.00
2023-09-17T04:34:15.242Z,100.00
2023-09-17T04:34:46.782Z,100.00
2023-09-17T04:35:19.136Z,100.00
2023-09-17T04:35:56.675Z,100.00
2023-09-17T04:36:28.162Z,100.00
2023-09-17T04:37:00.097Z,100.00
2023-09-17T04:37:32.610Z,100.00
2023-09-17T04:38:05.287Z,100.00
2023-09-17T04:38:36.889Z,100.00
2023-09-17T04:39:10.964Z,100.00
2023-09-17T04:39:43.964Z,100.00
2023-09-17T04:40:15.676Z,100.00
2023-09-17T04:40:47.141Z,100.00
2023-09-17T04:41:19.161Z,100.00
2023-09-17T04:41:51.631Z,100.00
2023-09-17T04:42:23.155Z,100.00
2023-09-17T04:42:54.813Z,100.00
2023-09-17T04:43:27.883Z,100.00
2023-09-17T04:44:01.795Z,100.00
2023-09-17T04:44:33.325Z,100.00
2023-09-17T04:45:08.277Z,100.00
2023-09-17T04:45:40.851Z,100.00
2023-09-17T04:46:12.511Z,100.00
2023-09-17T04:46:44.329Z,100.00
2023-09-17T04:47:15.963Z,100.00
2023-09-17T04:47:49.474Z,100.00
2023-09-17T04:48:21.002Z,100.00
2023-09-17T04:48:52.774Z,100.00
2023-09-17T04:49:24.476Z,100.00
2023-09-17T04:49:55.987Z,100.00
2023-09-17T04:50:27.721Z,100.00
2023-09-17T04:50:59.236Z,100.00
2023-09-17T04:51:30.796Z,100.00
2023-09-17T04:52:02.262Z,100.00
2023-09-17T04:52:33.768Z,100.00
2023-09-17T04:53:05.249Z,100.00
2023-09-17T04:53:36.733Z,100.00
2023-09-17T04:54:08.370Z,100.00
2023-09-17T04:54:40.032Z,100.00
2023-09-17T04:55:11.509Z,100.00
2023-09-17T04:55:43.061Z,100.00
2023-09-17T04:56:14.888Z,100.00
2023-09-17T04:56:46.406Z,100.00
2023-09-17T04:57:17.869Z,100.00
2023-09-17T04:57:49.423Z,100.00
2023-09-17T04:58:21.009Z,100.00
2023-09-17T04:58:52.566Z,100.00
2023-09-17T04:59:24.062Z,100.00
2023-09-17T04:59:57.440Z,100.00
2023-09-17T05:00:30.708Z,100.00
2023-09-17T05:01:02.175Z,100.00
2023-09-17T05:01:34.298Z,100.00
2023-09-17T05:02:05.944Z,100.00
2023-09-17T05:02:39.856Z,100.00
2023-09-17T05:03:12.844Z,100.00
2023-09-17T05:03:44.511Z,100.00
2023-09-17T05:04:16.629Z,100.00
2023-09-17T05:04:48.170Z,100.00
2023-09-17T05:05:23.954Z,100.00
2023-09-17T05:05:57.191Z,100.00
2023-09-17T05:06:28.809Z,100.00
2023-09-17T05:07:00.482Z,100.00
2023-09-17T05:07:31.961Z,100.00
2023-09-17T05:08:04.450Z,100.00
2023-09-17T05:08:35.948Z,100.00
2023-09-17T05:09:07.427Z,100.00
2023-09-17T05:09:39.045Z,100.00
2023-09-17T05:10:10.564Z,100.00
2023-09-17T05:10:42.066Z,100.00
2023-09-17T05:11:13.657Z,100.00
2023-09-17T05:11:45.385Z,100.00
2023-09-17T05:12:16.910Z,100.00
2023-09-17T05:12:48.567Z,100.00
2023-09-17T05:13:20.196Z,100.00
2023-09-17T05:13:52.069Z,100.00
2023-09-17T05:14:23.838Z,100.00
2023-09-17T05:14:55.297Z,100.00
2023-09-17T05:15:26.806Z,100.00
2023-09-17T05:15:58.686Z,100.00
2023-09-17T05:16:30.340Z,100.00
2023-09-17T05:17:02.159Z,100.00
2023-09-17T05:17:33.805Z,100.00
2023-09-17T05:18:10.322Z,100.00
2023-09-17T05:18:41.845Z,100.00
2023-09-17T05:19:13.336Z,100.00
2023-09-17T05:19:44.835Z,100.00
2023-09-17T05:20:16.484Z,100.00
2023-09-17T05:20:49.488Z,100.00
2023-09-17T05:21:21.001Z,100.00
2023-09-17T05:21:52.480Z,100.00
2023-09-17T05:22:24.024Z,100.00
2023-09-17T05:22:57.859Z,100.00
2023-09-17T05:23:29.372Z,100.00
2023-09-17T05:24:00.901Z,100.00
2023-09-17T05:24:32.410Z,100.00
2023-09-17T05:25:05.475Z,100.00
2023-09-17T05:25:37.032Z,100.00
2023-09-17T05:26:08.511Z,100.00
2023-09-17T05:26:40.070Z,100.00
2023-09-17T05:27:11.551Z,100.00
2023-09-17T05:27:43.359Z,100.00
2023-09-17T05:28:15.207Z,100.00
2023-09-17T05:28:46.687Z,100.00
2023-09-17T05:29:18.421Z,100.00
2023-09-17T05:29:49.973Z,100.00
2023-09-17T05:30:21.420Z,100.00
2023-09-17T05:30:54.429Z,100.00
2023-09-17T05:31:26.643Z,100.00
2023-09-17T05:31:58.224Z,100.00
2023-09-17T05:32:29.807Z,100.00
2023-09-17T05:33:01.930Z,100.00
2023-09-17T05:33:33.425Z,100.00
2023-09-17T05:34:04.932Z,100.00
2023-09-17T05:34:36.436Z,100.00
2023-09-17T05:35:08.969Z,100.00
2023-09-17T05:35:40.608Z,100.00
2023-09-17T05:36:12.076Z,100.00
2023-09-17T05:36:43.559Z,100.00
2023-09-17T05:37:15.069Z,100.00
2023-09-17T05:37:46.658Z,100.00
2023-09-17T05:38:18.149Z,100.00
2023-09-17T05:38:49.674Z,100.00
2023-09-17T05:39:21.137Z,100.00
2023-09-17T05:39:52.646Z,100.00
2023-09-17T05:40:24.321Z,100.00
2023-09-17T05:40:56.128Z,100.00
2023-09-17T05:41:27.594Z,100.00
2023-09-17T05:41:59.120Z,100.00
2023-09-17T05:42:32.035Z,100.00
2023-09-17T05:43:03.588Z,100.00
2023-09-17T05:43:35.938Z,100.00
2023-09-17T05:44:07.583Z,100.00
2023-09-17T05:44:39.087Z,100.00
2023-09-17T05:45:11.044Z,100.00
2023-09-17T05:45:42.634Z,100.00
2023-09-17T05:46:14.198Z,100.00
2023-09-17T05:46:45.891Z,100.00
2023-09-17T05:47:17.523Z,100.00
2023-09-17T05:47:49.978Z,100.00
2023-09-17T05:48:21.502Z,100.00
2023-09-17T05:48:52.997Z,100.00
2023-09-17T05:49:24.530Z,100.00
2023-09-17T05:49:57.093Z,100.00
2023-09-17T05:50:28.765Z,100.00
2023-09-17T05:51:00.692Z,100.00
2023-09-17T05:51:32.190Z,100.00
2023-09-17T05:52:03.874Z,100.00
2023-09-17T05:52:35.495Z,100.00
2023-09-17T05:53:07.061Z,100.00
2023-09-17T05:53:38.606Z,100.00
2023-09-17T05:54:10.239Z,100.00
2023-09-17T05:54:41.695Z,100.00
2023-09-17T05:55:13.184Z,100.00
2023-09-17T05:55:44.776Z,100.00
2023-09-17T05:56:16.317Z,100.00
2023-09-17T05:56:47.937Z,100.00
2023-09-17T05:57:19.415Z,100.00
2023-09-17T05:57:50.903Z,100.00
2023-09-17T05:58:22.427Z,100.00
2023-09-17T05:58:54.387Z,100.00
2023-09-17T05:59:25.927Z,100.00
2023-09-17T05:59:58.261Z,100.00
2023-09-17T06:00:30.265Z,100.00
2023-09-17T06:01:01.767Z,100.00
2023-09-17T06:01:34.299Z,100.00
2023-09-17T06:02:06.286Z,100.00
2023-09-17T06:02:38.438Z,100.00
2023-09-17T06:03:10.288Z,100.00
2023-09-17T06:03:42.593Z,100.00
2023-09-17T06:04:14.105Z,100.00
2023-09-17T06:04:48.787Z,100.00
2023-09-17T06:05:21.254Z,100.00
2023-09-17T06:05:55.391Z,100.00
2023-09-17T06:06:26.920Z,100.00
2023-09-17T06:06:58.397Z,100.00
2023-09-17T06:07:29.843Z,100.00
2023-09-17T06:08:01.384Z,100.00
2023-09-17T06:08:32.972Z,100.00
2023-09-17T06:09:04.946Z,100.00
2023-09-17T06:09:36.405Z,100.00
2023-09-17T06:10:08.257Z,100.00
2023-09-17T06:10:39.777Z,100.00
2023-09-17T06:11:12.548Z,100.00
2023-09-17T06:11:44.145Z,100.00
2023-09-17T06:12:16.644Z,100.00
2023-09-17T06:12:48.113Z,100.00
2023-09-17T06:13:19.679Z,100.00
2023-09-17T06:13:51.417Z,100.00
2023-09-17T06:14:23.104Z,100.00
2023-09-17T06:14:54.604Z,100.00
2023-09-17T06:15:26.862Z,100.00
2023-09-17T06:15:58.437Z,100.00
2023-09-17T06:16:39.149Z,100.00
2023-09-17T06:17:17.891Z,100.00
2023-09-17T06:17:49.562Z,100.00
2023-09-17T06:18:21.097Z,100.00
2023-09-17T06:18:53.076Z,100.00
2023-09-17T06:19:24.679Z,100.00
2023-09-17T06:19:56.305Z,100.00
2023-09-17T06:20:28.221Z,100.00
2023-09-17T06:21:00.339Z,100.00
2023-09-17T06:21:31.847Z,100.00
2023-09-17T06:22:03.505Z,100.00
2023-09-17T06:22:35.458Z,100.00
2023-09-17T06:23:06.939Z,100.00
2023-09-17T06:23:38.444Z,100.00
2023-09-17T06:24:10.002Z,100.00
2023-09-17T06:24:41.505Z,100.00
2023-09-17T06:25:13.212Z,100.00
2023-09-17T06:25:44.995Z,100.00
2023-09-17T06:26:16.534Z,100.00
2023-09-17T06:26:48.585Z,100.00
2023-09-17T06:27:20.106Z,100.00
2023-09-17T06:27:51.715Z,100.00
2023-09-17T06:28:23.272Z,100.00
2023-09-17T06:28:54.870Z,100.00
2023-09-17T06:29:26.377Z,100.00
2023-09-17T06:29:57.919Z,100.00
2023-09-17T06:30:29.401Z,100.00
2023-09-17T06:31:02.718Z,100.00
2023-09-17T06:31:34.350Z,100.00
2023-09-17T06:32:06.195Z,100.00
2023-09-17T06:32:37.919Z,100.00
2023-09-17T06:33:09.546Z,100.00
2023-09-17T06:33:41.143Z,100.00
2023-09-17T06:34:12.851Z,100.00
2023-09-17T06:34:44.522Z,100.00
2023-09-17T06:35:16.177Z,100.00
2023-09-17T06:35:47.781Z,100.00
2023-09-17T06:36:19.557Z,100.00
2023-09-17T06:36:51.059Z,100.00
2023-09-17T06:37:22.754Z,100.00
2023-09-17T06:37:54.288Z,100.00
2023-09-17T06:38:25.889Z,100.00
2023-09-17T06:38:57.401Z,100.00
2023-09-17T06:39:28.935Z,100.00
2023-09-17T06:40:00.433Z,100.00
2023-09-17T06:40:32.028Z,100.00
2023-09-17T06:41:03.581Z,100.00
2023-09-17T06:41:38.174Z,100.00
2023-09-17T06:42:11.694Z,100.00
2023-09-17T06:42:43.207Z,100.00
2023-09-17T06:43:14.707Z,100.00
2023-09-17T06:43:47.295Z,100.00
2023-09-17T06:44:19.589Z,100.00
2023-09-17T06:44:51.052Z,100.00
2023-09-17T06:45:22.574Z,100.00
2023-09-17T06:45:54.105Z,100.00
2023-09-17T06:46:26.475Z,100.00
2023-09-17T06:46:58.120Z,100.00
2023-09-17T06:47:29.882Z,100.00
2023-09-17T06:48:01.528Z,100.00
2023-09-17T06:48:33.059Z,100.00
2023-09-17T06:49:04.973Z,100.00
2023-09-17T06:49:36.559Z,100.00
2023-09-17T06:50:08.960Z,100.00
2023-09-17T06:50:40.525Z,100.00
2023-09-17T06:51:12.082Z,100.00
2023-09-17T06:51:43.599Z,100.00
2023-09-17T06:52:15.557Z,100.00